Time;durP1;ratioP1;P1;durP2;ratioP2;P2;SDS_P1;SDS_P2;PMS_P1;PMS_P2;Temp;Humidity;BMP_temperature;BMP_pressure;BME280_temperature;BME280_humidity;BME280_pressure;Samples;Min_cycle;Max_cycle;Signal;HPM_P1;HPM_P2
2021/09/10 00:03:12;;;;;;;17.67;10.70;;;;;;;15.95;100.00;99293.99;4129780;86;28549;-84
2021/09/10 00:09:13;;;;;;;20.40;12.07;;;;;;;15.83;100.00;99298.20;4257987;82;28518;-82
2021/09/10 00:15:15;;;;;;;19.20;10.63;;;;;;;15.89;100.00;99294.98;4252673;83;28538;-82
2021/09/10 00:21:16;;;;;;;18.67;10.78;;;;;;;15.68;100.00;99292.67;4309777;82;28524;-82
2021/09/10 00:27:18;;;;;;;18.42;11.73;;;;;;;15.89;100.00;99293.63;4314380;80;28542;-82
2021/09/10 00:33:19;;;;;;;17.77;11.78;;;;;;;15.87;100.00;99299.86;4313905;82;28474;-83
2021/09/10 00:39:22;;;;;;;17.48;10.68;;;;;;;15.57;100.00;99300.72;4305484;83;28471;-82
2021/09/10 00:45:23;;;;;;;17.32;10.82;;;;;;;15.32;100.00;99301.30;4278608;83;28451;-82
2021/09/10 00:51:25;;;;;;;17.20;10.20;;;;;;;15.42;100.00;99295.98;4302735;81;28468;-83
2021/09/10 00:57:27;;;;;;;16.55;10.75;;;;;;;15.49;100.00;99302.54;4301524;83;28466;-83
2021/09/10 01:03:29;;;;;;;21.62;11.28;;;;;;;15.09;100.00;99302.41;4315234;82;28449;-82
2021/09/10 01:09:31;;;;;;;15.68;10.15;;;;;;;14.97;100.00;99301.19;4300890;81;28505;-83
2021/09/10 01:15:34;;;;;;;14.65;9.60;;;;;;;15.04;100.00;99301.27;4292430;81;28469;-82
2021/09/10 01:21:35;;;;;;;13.18;9.25;;;;;;;14.83;100.00;99304.82;4322020;81;28488;-81
2021/09/10 01:27:43;;;;;;;15.08;9.63;;;;;;;14.82;100.00;99317.55;4300177;80;28471;-82
2021/09/10 01:33:44;;;;;;;16.97;10.25;;;;;;;14.70;100.00;99322.25;4263830;82;28499;-82
2021/09/10 01:39:46;;;;;;;22.48;11.73;;;;;;;14.64;100.00;99324.07;4259377;82;28464;-82
2021/09/10 01:45:47;;;;;;;17.27;10.13;;;;;;;14.72;100.00;99324.16;4266203;83;28494;-83
2021/09/10 01:51:48;;;;;;;15.43;9.83;;;;;;;14.88;100.00;99323.84;4263787;82;28503;-83
2021/09/10 01:57:51;;;;;;;14.87;9.78;;;;;;;14.61;100.00;99324.03;4252902;82;28504;-83
2021/09/10 02:03:53;;;;;;;15.20;9.23;;;;;;;14.74;100.00;99328.30;4256205;82;28429;-83
2021/09/10 02:09:55;;;;;;;16.55;9.28;;;;;;;14.44;100.00;99320.02;4339900;82;28485;-84
2021/09/10 02:15:56;;;;;;;16.00;9.18;;;;;;;14.10;100.00;99318.71;4350156;82;28540;-84
2021/09/10 02:21:58;;;;;;;13.93;8.95;;;;;;;14.13;100.00;99312.83;4303127;82;28598;-84
2021/09/10 02:27:59;;;;;;;15.55;9.10;;;;;;;13.86;100.00;99319.45;4141233;84;28580;-83
2021/09/10 02:34:01;;;;;;;14.63;8.75;;;;;;;13.83;100.00;99320.75;4272997;83;28515;-83
2021/09/10 02:40:05;;;;;;;16.00;8.95;;;;;;;13.85;100.00;99317.27;4259124;83;28467;-83
2021/09/10 02:46:07;;;;;;;13.20;8.98;;;;;;;13.72;100.00;99312.20;4247436;83;28491;-83
2021/09/10 02:52:08;;;;;;;12.43;8.60;;;;;;;13.61;100.00;99315.24;4255239;82;28466;-83
2021/09/10 02:58:10;;;;;;;13.80;8.90;;;;;;;13.68;100.00;99313.73;4292778;82;28498;-84
2021/09/10 03:04:14;;;;;;;16.65;8.55;;;;;;;13.48;100.00;99308.27;4301468;82;28491;-83
2021/09/10 03:10:16;;;;;;;13.32;8.28;;;;;;;13.41;100.00;99304.89;4287315;82;28530;-83
2021/09/10 03:16:17;;;;;;;14.58;8.23;;;;;;;13.52;100.00;99318.34;4290383;82;28485;-83
2021/09/10 03:22:19;;;;;;;15.75;9.13;;;;;;;13.45;100.00;99322.27;4326859;82;28476;-85
2021/09/10 03:28:20;;;;;;;14.58;8.83;;;;;;;13.61;100.00;99315.24;4291373;82;28460;-83
2021/09/10 03:34:21;;;;;;;15.30;8.78;;;;;;;13.39;100.00;99322.16;4260740;83;28492;-84
2021/09/10 03:40:24;;;;;;;16.07;8.93;;;;;;;13.10;100.00;99319.47;4213135;83;28472;-84
2021/09/10 03:46:28;;;;;;;12.45;8.28;;;;;;;13.14;100.00;99317.63;4304551;82;28489;-84
2021/09/10 03:52:29;;;;;;;12.70;8.48;;;;;;;13.33;100.00;99318.23;4292312;82;28500;-84
2021/09/10 03:58:31;;;;;;;12.30;7.45;;;;;;;13.25;100.00;99317.58;4284766;83;28449;-83
2021/09/10 04:04:32;;;;;;;10.00;6.40;;;;;;;13.12;100.00;99319.23;4280996;83;28537;-84
2021/09/10 04:10:36;;;;;;;12.37;7.62;;;;;;;13.57;100.00;99323.56;4275720;83;28505;-84
2021/09/10 04:16:37;;;;;;;17.37;8.40;;;;;;;13.63;100.00;99326.09;4271784;83;28457;-84
2021/09/10 04:22:40;;;;;;;10.13;7.42;;;;;;;13.63;100.00;99320.70;4271604;83;28517;-82
2021/09/10 04:28:46;;;;;;;13.40;7.47;;;;;;;13.32;100.00;99317.95;4274877;82;28475;-83
2021/09/10 04:34:47;;;;;;;11.65;7.17;;;;;;;13.31;100.00;99320.36;4290794;82;28492;-82
2021/09/10 04:40:48;;;;;;;12.33;7.03;;;;;;;13.44;100.00;99330.91;4273781;82;28503;-83
2021/09/10 04:46:50;;;;;;;12.23;6.90;;;;;;;13.70;100.00;99329.19;4265756;83;28518;-82
2021/09/10 04:52:51;;;;;;;10.05;7.30;;;;;;;13.46;100.00;99332.00;4266387;83;28455;-83
2021/09/10 04:58:54;;;;;;;14.18;8.25;;;;;;;13.47;100.00;99334.98;4236369;83;28544;-84
2021/09/10 05:04:55;;;;;;;12.45;8.10;;;;;;;13.69;100.00;99338.33;4266351;83;28538;-84
2021/09/10 05:10:57;;;;;;;12.58;7.62;;;;;;;13.77;100.00;99347.39;4266327;83;28480;-84
2021/09/10 05:16:58;;;;;;;13.80;8.20;;;;;;;13.84;100.00;99338.59;4266506;83;28471;-84
2021/09/10 05:22:59;;;;;;;14.28;8.50;;;;;;;14.17;100.00;99344.25;4265982;83;28498;-84
2021/09/10 05:29:01;;;;;;;15.23;9.40;;;;;;;14.23;100.00;99340.54;4274691;83;28479;-83
2021/09/10 05:35:03;;;;;;;15.32;9.68;;;;;;;14.55;100.00;99340.45;4311159;82;28443;-85
2021/09/10 05:41:04;;;;;;;17.52;10.53;;;;;;;14.65;100.00;99339.23;4345535;82;28484;-83
2021/09/10 05:47:05;;;;;;;17.50;9.68;;;;;;;15.07;100.00;99335.15;4342669;82;28527;-82
2021/09/10 05:53:09;;;;;;;16.75;10.08;;;;;;;15.18;100.00;99336.09;4342005;82;28468;-82
2021/09/10 05:59:10;;;;;;;16.87;9.50;;;;;;;15.30;100.00;99334.58;4347059;81;28550;-83
2021/09/10 06:05:11;;;;;;;16.40;10.08;;;;;;;15.55;100.00;99339.42;4340044;81;28469;-82
2021/09/10 06:11:13;;;;;;;16.90;9.73;;;;;;;15.92;100.00;99335.16;4250335;81;28520;-84
2021/09/10 06:17:14;;;;;;;15.48;9.55;;;;;;;16.16;100.00;99340.23;4298335;81;28570;-84
2021/09/10 06:23:19;;;;;;;18.73;10.72;;;;;;;16.33;100.00;99339.23;4330893;81;28515;-83
2021/09/10 06:29:20;;;;;;;16.40;9.53;;;;;;;16.53;100.00;99346.14;4315782;81;28510;-83
2021/09/10 06:35:22;;;;;;;16.50;9.05;;;;;;;16.67;100.00;99343.77;4246994;83;28480;-84
2021/09/10 06:41:24;;;;;;;19.70;9.43;;;;;;;17.08;100.00;99340.98;4318255;82;28563;-83
2021/09/10 06:47:25;;;;;;;15.85;9.73;;;;;;;17.35;100.00;99344.05;4305420;82;28434;-84
2021/09/10 06:53:26;;;;;;;14.58;7.90;;;;;;;17.61;100.00;99354.95;4246787;84;28560;-84
2021/09/10 06:59:28;;;;;;;13.78;7.50;;;;;;;17.86;100.00;99352.80;4248572;84;28493;-84
2021/09/10 07:05:29;;;;;;;10.08;6.65;;;;;;;18.14;100.00;99361.52;4214742;84;28536;-85
2021/09/10 07:11:33;;;;;;;11.30;5.95;;;;;;;18.38;100.00;99359.58;4286158;82;28505;-84
2021/09/10 07:17:34;;;;;;;10.30;4.85;;;;;;;18.51;100.00;99360.92;4287899;82;28514;-87
2021/09/10 07:23:35;;;;;;;11.60;5.47;;;;;;;18.83;100.00;99363.81;4244983;82;28444;-83
2021/09/10 07:29:37;;;;;;;8.70;4.97;;;;;;;19.09;100.00;99368.64;4231202;82;28507;-83
2021/09/10 07:35:39;;;;;;;8.38;4.47;;;;;;;19.35;100.00;99363.60;4276240;81;28530;-82
2021/09/10 07:41:40;;;;;;;8.00;4.05;;;;;;;19.62;100.00;99367.23;4287561;81;28512;-85
2021/09/10 07:47:41;;;;;;;6.12;4.00;;;;;;;19.87;100.00;99355.86;4326109;82;28518;-85
2021/09/10 07:53:43;;;;;;;9.53;4.22;;;;;;;20.11;97.62;99364.72;4334185;82;28520;-81
2021/09/10 07:59:44;;;;;;;5.47;3.62;;;;;;;20.41;98.87;99369.62;4326823;81;28436;-85
2021/09/10 08:05:45;;;;;;;5.42;3.90;;;;;;;20.55;94.59;99369.72;4317454;82;28478;-82
2021/09/10 08:11:46;;;;;;;9.65;4.03;;;;;;;20.81;91.75;99370.81;4292065;81;28494;-80
2021/09/10 08:17:48;;;;;;;8.00;4.15;;;;;;;21.12;90.40;99366.90;4272499;81;28485;-80
2021/09/10 08:23:49;;;;;;;5.17;3.37;;;;;;;21.20;85.98;99372.29;4291984;81;28443;-79
2021/09/10 08:29:56;;;;;;;5.67;3.45;;;;;;;21.51;81.28;99370.49;4256076;81;28498;-79
2021/09/10 08:35:57;;;;;;;4.22;3.22;;;;;;;21.56;79.14;99367.66;4238025;82;28590;-80
2021/09/10 08:41:59;;;;;;;4.58;2.90;;;;;;;21.73;71.93;99358.41;4241748;82;28506;-80
2021/09/10 08:48:00;;;;;;;5.15;2.90;;;;;;;21.98;69.02;99359.66;4238154;82;28480;-78
2021/09/10 08:54:01;;;;;;;5.95;3.40;;;;;;;22.19;66.98;99356.00;4116755;85;28452;-78
2021/09/10 09:00:08;;;;;;;6.55;3.45;;;;;;;22.38;63.67;99353.75;4096419;85;28473;-77
2021/09/10 09:06:09;;;;;;;5.37;2.77;;;;;;;22.52;64.24;99353.22;4163341;84;28511;-79
2021/09/10 09:12:21;;;;;;;6.28;3.30;;;;;;;22.66;62.91;99354.60;4158559;84;28486;-77
2021/09/10 09:18:37;;;;;;;5.92;2.77;;;;;;;22.78;63.26;99352.73;4172958;84;28568;-77
2021/09/10 09:24:38;;;;;;;5.33;3.20;;;;;;;23.10;59.21;99351.52;4172956;84;28560;-77
2021/09/10 09:30:40;;;;;;;4.65;2.83;;;;;;;22.96;62.18;99350.16;4145416;84;28522;-79
2021/09/10 09:36:53;;;;;;;6.92;3.20;;;;;;;23.27;59.86;99345.37;4103574;85;28536;-77
2021/09/10 09:42:55;;;;;;;4.05;3.00;;;;;;;23.19;58.29;99338.70;4199627;83;28488;-77
2021/09/10 09:49:08;;;;;;;4.47;3.05;;;;;;;23.53;52.45;99334.69;4102648;85;28492;-79
2021/09/10 09:55:12;;;;;;;6.30;3.22;;;;;;;23.72;52.28;99326.02;4076866;85;28493;-81
2021/09/10 10:01:16;;;;;;;4.90;2.95;;;;;;;23.50;48.86;99329.00;4083557;86;28551;-79
2021/09/10 10:07:18;;;;;;;6.25;2.62;;;;;;;23.46;48.74;99328.81;4112191;85;28530;-79
2021/09/10 10:13:30;;;;;;;6.80;3.02;;;;;;;23.75;46.95;99326.75;4028919;86;28507;-79
2021/09/10 10:19:40;;;;;;;4.80;2.90;;;;;;;23.89;46.19;99317.87;4048704;86;28543;-80
2021/09/10 10:26:08;;;;;;;3.72;2.47;;;;;;;23.88;45.69;99312.71;4066746;86;28485;-79
2021/09/10 10:32:10;;;;;;;4.72;2.25;;;;;;;23.99;42.70;99309.13;4124825;84;28516;-80
2021/09/10 10:38:12;;;;;;;6.83;2.83;;;;;;;24.00;46.11;99306.62;4051338;86;28488;-79
2021/09/10 10:44:36;;;;;;;5.50;2.55;;;;;;;23.99;45.79;99300.33;4065780;85;28468;-79
2021/09/10 10:50:38;;;;;;;4.92;2.80;;;;;;;24.21;45.93;99292.64;4031109;87;28469;-81
2021/09/10 10:56:42;;;;;;;3.85;2.40;;;;;;;24.35;45.20;99296.64;4070217;86;28509;-82
2021/09/10 11:02:43;;;;;;;3.80;2.62;;;;;;;24.53;44.60;99300.83;4098401;86;28497;-80
2021/09/10 11:08:47;;;;;;;4.97;2.22;;;;;;;24.68;43.47;99295.45;4044795;87;28506;-80
2021/09/10 11:14:48;;;;;;;4.22;2.40;;;;;;;24.66;42.29;99283.98;4098580;87;28520;-80
2021/09/10 11:20:53;;;;;;;3.83;2.50;;;;;;;24.57;43.40;99286.69;4022597;87;28534;-80
2021/09/10 11:26:54;;;;;;;4.03;2.47;;;;;;;24.80;43.16;99281.68;4118525;85;28576;-81
2021/09/10 11:33:01;;;;;;;4.10;2.70;;;;;;;24.63;43.06;99270.30;4110107;86;28509;-82
2021/09/10 11:39:07;;;;;;;5.75;2.70;;;;;;;24.68;41.73;99267.14;4122367;84;28511;-80
2021/09/10 11:45:11;;;;;;;4.83;2.60;;;;;;;25.06;42.61;99246.78;4149098;84;28518;-80
2021/09/10 11:51:15;;;;;;;;;;;;;;;25.06;42.61;99246.78;4166432;84;39458;-80
2021/09/10 11:57:20;;;;;;;5.10;2.80;;;;;;;25.10;39.55;99245.56;4151284;84;20236;-81
2021/09/10 12:03:21;;;;;;;4.37;2.80;;;;;;;25.07;41.91;99239.31;4179394;84;28492;-80
2021/09/10 12:09:32;;;;;;;5.95;2.85;;;;;;;25.33;42.62;99234.38;4166294;84;28520;-82
2021/09/10 12:15:35;;;;;;;3.80;2.62;;;;;;;25.46;41.73;99225.13;4166469;84;28523;-82
2021/09/10 12:21:36;;;;;;;4.80;2.60;;;;;;;25.54;41.48;99223.52;4183268;84;28496;-80
2021/09/10 12:27:38;;;;;;;4.47;3.10;;;;;;;25.59;39.89;99217.84;4172280;84;28467;-79
2021/09/10 12:33:42;;;;;;;4.60;3.00;;;;;;;25.56;41.68;99212.98;4176534;85;28528;-81
2021/09/10 12:39:45;;;;;;;3.85;2.75;;;;;;;25.57;40.20;99207.73;4196162;84;28552;-80
2021/09/10 12:45:48;;;;;;;3.50;2.33;;;;;;;25.83;40.57;99197.78;4272482;81;28555;-82
2021/09/10 12:51:51;;;;;;;4.60;2.60;;;;;;;25.97;38.67;99193.41;4321732;81;28486;-81
2021/09/10 12:57:54;;;;;;;3.65;2.35;;;;;;;25.94;39.17;99189.39;4312067;81;28503;-81
2021/09/10 13:03:56;;;;;;;4.80;2.60;;;;;;;26.07;38.08;99186.14;4313314;81;28473;-81
2021/09/10 13:09:58;;;;;;;3.65;2.45;;;;;;;26.10;37.36;99182.75;4307426;81;28487;-82
2021/09/10 13:16:01;;;;;;;3.50;2.37;;;;;;;26.12;37.33;99172.20;4279388;82;28499;-82
2021/09/10 13:22:04;;;;;;;5.35;2.72;;;;;;;26.12;37.16;99173.58;4325310;81;28506;-80
2021/09/10 13:28:06;;;;;;;3.85;2.35;;;;;;;26.18;39.44;99170.05;4320127;81;28469;-81
2021/09/10 13:34:08;;;;;;;5.12;2.90;;;;;;;26.16;38.86;99166.83;4280040;82;28460;-81
2021/09/10 13:40:13;;;;;;;4.97;2.80;;;;;;;26.23;38.41;99164.95;4234230;82;28557;-81
2021/09/10 13:46:15;;;;;;;3.20;2.25;;;;;;;26.06;39.14;99171.34;4246954;82;28505;-81
2021/09/10 13:52:17;;;;;;;3.62;2.37;;;;;;;26.11;38.02;99167.01;4243958;82;28517;-81
2021/09/10 13:58:19;;;;;;;6.17;2.80;;;;;;;26.31;36.60;99164.09;4272208;82;28494;-80
2021/09/10 14:04:21;;;;;;;5.65;2.72;;;;;;;26.42;38.73;99158.98;4279529;82;28475;-81
2021/09/10 14:10:23;;;;;;;4.15;2.40;;;;;;;26.37;38.72;99160.58;4240245;82;28552;-81
2021/09/10 14:16:24;;;;;;;4.17;2.70;;;;;;;26.35;36.59;99155.97;4254469;82;28557;-84
2021/09/10 14:22:26;;;;;;;4.92;2.72;;;;;;;26.35;37.43;99156.77;4245584;84;28528;-81
2021/09/10 14:28:28;;;;;;;4.92;2.80;;;;;;;26.30;38.54;99156.97;4266265;82;28434;-80
2021/09/10 14:34:32;;;;;;;4.53;2.42;;;;;;;26.27;41.29;99156.25;4268102;82;28545;-79
2021/09/10 14:40:34;;;;;;;4.50;2.65;;;;;;;26.34;42.22;99160.67;4260019;82;28491;-79
2021/09/10 14:46:35;;;;;;;5.37;2.60;;;;;;;26.42;40.58;99159.80;4233654;82;28526;-79
2021/09/10 14:52:37;;;;;;;5.50;2.40;;;;;;;26.37;40.03;99163.33;4242561;82;28512;-77
2021/09/10 14:58:38;;;;;;;3.92;2.50;;;;;;;26.35;37.67;99156.77;4244936;82;28457;-79
2021/09/10 15:04:40;;;;;;;19.95;13.93;;;;;;;26.33;38.06;99157.67;4246101;82;28492;-78
2021/09/10 15:10:42;;;;;;;7.90;3.33;;;;;;;26.34;38.69;99160.67;4249317;82;28559;-78
2021/09/10 15:16:43;;;;;;;4.35;2.95;;;;;;;26.29;38.40;99156.16;4235687;82;28439;-78
2021/09/10 15:22:45;;;;;;;5.37;2.85;;;;;;;26.03;39.77;99154.34;4251690;82;28617;-79
2021/09/10 15:28:46;;;;;;;6.40;3.20;;;;;;;25.99;39.11;99157.52;4238411;82;28475;-78
2021/09/10 15:34:48;;;;;;;8.28;3.20;;;;;;;25.97;40.59;99157.59;4247121;81;28512;-76
2021/09/10 15:40:57;;;;;;;5.78;3.08;;;;;;;25.83;45.04;99153.14;4271982;81;28510;-78
2021/09/10 15:46:59;;;;;;;5.55;2.85;;;;;;;25.75;40.89;99151.22;4265806;81;28463;-77
2021/09/10 15:53:00;;;;;;;5.33;2.65;;;;;;;25.73;43.78;99146.63;4278769;81;28544;-78
2021/09/10 15:59:02;;;;;;;5.45;3.33;;;;;;;25.77;40.75;99143.44;4282345;81;28455;-78
2021/09/10 16:05:06;;;;;;;5.90;3.00;;;;;;;25.84;47.92;99137.44;4282805;81;28473;-80
2021/09/10 16:11:07;;;;;;;6.17;2.85;;;;;;;25.58;46.64;99130.91;4272366;81;28508;-81
2021/09/10 16:17:09;;;;;;;3.87;2.75;;;;;;;25.46;47.26;99132.11;4290962;81;28473;-81
2021/09/10 16:23:15;;;;;;;5.65;3.50;;;;;;;24.90;51.82;99132.33;4268423;81;28462;-81
2021/09/10 16:29:16;;;;;;;8.28;3.30;;;;;;;24.47;56.35;99131.17;4286095;81;28533;-82
2021/09/10 16:35:22;;;;;;;12.73;5.35;;;;;;;24.25;55.84;99129.94;4206001;83;28479;-82
2021/09/10 16:41:24;;;;;;;11.93;4.30;;;;;;;24.00;59.21;99124.02;4283693;81;28464;-81
2021/09/10 16:47:25;;;;;;;10.68;3.80;;;;;;;23.65;64.53;99135.14;4306679;82;28507;-79
2021/09/10 16:53:26;;;;;;;7.97;3.83;;;;;;;23.31;72.15;99135.22;4276195;82;28544;-82
2021/09/10 16:59:28;;;;;;;8.03;3.50;;;;;;;23.14;71.90;99135.91;4307863;81;28550;-83
2021/09/10 17:05:30;;;;;;;8.90;3.55;;;;;;;22.88;74.57;99143.95;4260526;82;28469;-83
2021/09/10 17:11:31;;;;;;;10.38;3.92;;;;;;;22.72;75.14;99136.66;4268717;81;28463;-81
2021/09/10 17:17:33;;;;;;;14.05;3.98;;;;;;;22.55;70.20;99143.05;4293776;81;28510;-83
2021/09/10 17:23:34;;;;;;;7.15;4.83;;;;;;;22.13;82.40;99145.03;4283063;81;28486;-82
2021/09/10 17:29:35;;;;;;;9.78;5.03;;;;;;;21.92;73.03;99156.94;4272508;81;28454;-80
2021/09/10 17:35:37;;;;;;;8.03;4.85;;;;;;;22.13;70.77;99169.09;4266469;81;28580;-80
2021/09/10 17:41:38;;;;;;;8.53;4.40;;;;;;;21.68;75.78;99166.16;4232224;82;28546;-80
2021/09/10 17:47:40;;;;;;;17.42;10.38;;;;;;;21.25;84.93;99177.54;4258694;82;28491;-79
2021/09/10 17:53:41;;;;;;;10.08;5.70;;;;;;;21.33;82.65;99182.88;4177888;83;28506;-79
2021/09/10 17:59:44;;;;;;;9.15;5.00;;;;;;;21.46;80.14;99184.03;4253724;82;28466;-79
2021/09/10 18:05:45;;;;;;;10.08;5.70;;;;;;;21.32;80.51;99186.72;4242675;82;28499;-80
2021/09/10 18:11:47;;;;;;;7.33;4.78;;;;;;;21.19;83.16;99191.02;4135314;84;28529;-79
2021/09/10 18:17:48;;;;;;;16.02;5.97;;;;;;;20.83;88.61;99192.39;4286226;82;28481;-79
2021/09/10 18:23:49;;;;;;;11.18;5.25;;;;;;;20.60;98.85;99200.87;4258392;82;28553;-79
2021/09/10 18:29:51;;;;;;;10.20;5.70;;;;;;;20.54;96.18;99206.16;4246830;82;28470;-80
2021/09/10 18:35:52;;;;;;;12.80;6.75;;;;;;;20.57;94.72;99215.95;4270452;82;28471;-79
2021/09/10 18:41:53;;;;;;;9.90;5.62;;;;;;;20.76;91.56;99225.52;4264746;82;28470;-80
2021/09/10 18:47:55;;;;;;;12.78;6.58;;;;;;;20.89;95.88;99227.28;4214692;82;28476;-80
2021/09/10 18:53:56;;;;;;;12.43;6.67;;;;;;;20.50;100.00;99235.15;4225760;82;28455;-80
2021/09/10 18:59:57;;;;;;;14.65;7.80;;;;;;;20.32;100.00;99237.56;4215414;82;28473;-80
2021/09/10 19:05:58;;;;;;;16.65;8.38;;;;;;;20.43;100.00;99239.06;4154845;84;28507;-79
2021/09/10 19:12:02;;;;;;;14.07;8.18;;;;;;;20.43;100.00;99239.61;4192017;84;28462;-81
2021/09/10 19:18:05;;;;;;;19.15;11.63;;;;;;;20.33;100.00;99229.06;4158859;84;28470;-79
2021/09/10 19:24:06;;;;;;;21.82;12.50;;;;;;;20.13;100.00;99223.84;4156232;84;28460;-80
2021/09/10 19:30:09;;;;;;;19.80;10.93;;;;;;;19.92;100.00;99228.12;4150929;84;28541;-81
2021/09/10 19:36:11;;;;;;;18.23;9.90;;;;;;;19.72;100.00;99222.34;4090627;85;28495;-83
2021/09/10 19:42:13;;;;;;;17.32;10.25;;;;;;;19.53;100.00;99234.53;4241385;82;28487;-82
2021/09/10 19:48:17;;;;;;;19.30;10.55;;;;;;;19.60;100.00;99230.36;4272612;82;28494;-83
2021/09/10 19:54:19;;;;;;;23.18;11.83;;;;;;;19.54;100.00;99236.95;4289136;80;28477;-82
2021/09/10 20:00:22;;;;;;;24.52;12.70;;;;;;;19.38;100.00;99244.44;4244529;81;28507;-80
2021/09/10 20:06:24;;;;;;;22.45;12.07;;;;;;;19.32;100.00;99246.96;4277042;81;28537;-83
2021/09/10 20:12:26;;;;;;;26.05;14.33;;;;;;;19.17;100.00;99235.05;4255503;81;28472;-81
2021/09/10 20:18:29;;;;;;;21.45;12.18;;;;;;;19.08;100.00;99238.94;4255823;82;28496;-81
2021/09/10 20:24:31;;;;;;;21.97;12.35;;;;;;;18.85;100.00;99239.05;4264188;81;28494;-84
2021/09/10 20:30:32;;;;;;;21.40;12.00;;;;;;;18.57;100.00;99235.91;4255951;81;28507;-82
2021/09/10 20:36:38;;;;;;;21.17;12.10;;;;;;;18.46;100.00;99249.30;4262352;81;28509;-83
2021/09/10 20:42:40;;;;;;;25.30;12.60;;;;;;;18.59;100.00;99250.09;4219279;81;28470;-81
2021/09/10 20:48:41;;;;;;;22.95;12.80;;;;;;;18.24;100.00;99258.64;4259221;81;28450;-82
2021/09/10 20:54:42;;;;;;;21.95;12.33;;;;;;;18.09;100.00;99256.23;4280639;81;28460;-80
2021/09/10 21:00:43;;;;;;;34.13;20.95;;;;;;;18.00;100.00;99264.66;4280289;81;28442;-80
2021/09/10 21:06:47;;;;;;;29.55;17.85;;;;;;;18.11;100.00;99260.85;4265521;80;28485;-83
2021/09/10 21:12:48;;;;;;;25.72;13.85;;;;;;;17.97;100.00;99258.42;4258620;81;28566;-81
2021/09/10 21:18:49;;;;;;;29.72;14.45;;;;;;;18.22;100.00;99258.94;4269183;81;28478;-83
2021/09/10 21:24:50;;;;;;;21.62;12.35;;;;;;;18.04;100.00;99256.80;4268274;81;28514;-82
2021/09/10 21:30:54;;;;;;;22.22;12.95;;;;;;;17.97;100.00;99270.09;4260760;81;28451;-81
2021/09/10 21:37:00;;;;;;;22.13;12.58;;;;;;;17.82;100.00;99269.57;4194980;82;28598;-84
2021/09/10 21:43:02;;;;;;;21.82;12.28;;;;;;;17.75;100.00;99274.46;4236713;82;28457;-82
2021/09/10 21:49:04;;;;;;;25.37;12.90;;;;;;;17.70;100.00;99265.80;4261517;82;28487;-81
2021/09/10 21:55:06;;;;;;;22.82;12.88;;;;;;;17.39;100.00;99268.52;4245282;81;28482;-83
2021/09/10 22:01:07;;;;;;;24.25;12.93;;;;;;;17.39;100.00;99269.04;4243077;82;28540;-83
2021/09/10 22:07:09;;;;;;;22.87;13.70;;;;;;;17.30;100.00;99262.51;4242695;82;28530;-81
2021/09/10 22:13:11;;;;;;;24.02;12.98;;;;;;;17.22;100.00;99268.73;4237323;82;28521;-82
2021/09/10 22:19:12;;;;;;;20.57;12.35;;;;;;;17.08;100.00;99271.72;4143579;83;28491;-83
2021/09/10 22:25:14;;;;;;;19.45;12.25;;;;;;;16.92;100.00;99273.55;4230591;82;28462;-83
2021/09/10 22:31:16;;;;;;;22.98;13.08;;;;;;;16.73;100.00;99276.22;4256109;82;28491;-83
2021/09/10 22:37:18;;;;;;;20.08;12.13;;;;;;;16.78;100.00;99288.16;4234124;82;28575;-84
2021/09/10 22:43:20;;;;;;;20.27;12.75;;;;;;;16.62;100.00;99277.27;4258088;82;28489;-83
2021/09/10 22:49:21;;;;;;;28.12;15.28;;;;;;;16.79;100.00;99279.77;4240998;82;28474;-82
2021/09/10 22:55:23;;;;;;;22.80;12.15;;;;;;;16.69;100.00;99284.59;4263893;82;28493;-85
2021/09/10 23:01:24;;;;;;;19.02;11.55;;;;;;;16.28;100.00;99274.91;4161921;84;28480;-84
2021/09/10 23:07:26;;;;;;;20.75;11.97;;;;;;;16.81;100.00;99270.80;4141182;84;28532;-84
2021/09/10 23:13:27;;;;;;;22.13;12.63;;;;;;;16.56;100.00;99275.07;4139913;84;28468;-83
2021/09/10 23:19:28;;;;;;;18.67;12.03;;;;;;;16.58;100.00;99279.69;4145231;84;28543;-83
2021/09/10 23:25:30;;;;;;;21.80;12.43;;;;;;;16.53;100.00;99282.36;4131005;84;28535;-83
2021/09/10 23:31:31;;;;;;;23.67;12.10;;;;;;;16.43;100.00;99283.67;4129002;84;28476;-83
2021/09/10 23:37:32;;;;;;;20.95;11.85;;;;;;;16.21;100.00;99278.42;4171949;83;28533;-83
2021/09/10 23:43:33;;;;;;;19.77;10.90;;;;;;;16.00;100.00;99276.39;4192676;83;28473;-84
2021/09/10 23:49:35;;;;;;;19.37;12.23;;;;;;;16.34;100.00;99273.88;4274068;81;28498;-84
2021/09/10 23:55:36;;;;;;;19.70;11.35;;;;;;;15.99;100.00;99268.53;4276500;81;28493;-84
